Time;durP1;ratioP1;P1;durP2;ratioP2;P2;SDS_P1;SDS_P2;PMS_P1;PMS_P2;Temp;Humidity;BMP_temperature;BMP_pressure;BME280_temperature;BME280_humidity;BME280_pressure;Samples;Min_cycle;Max_cycle;Signal;HPM_P1;HPM_P2
2023/05/10 00:03:07;;;;;;;;;;;17.10;33.20;;;16.06;33.10;100919.25;12254829;19;20810;-83
2023/05/10 00:07:10;;;;;;;;;;;17.00;33.20;;;15.98;33.08;100919.00;12250962;19;19918;-84
2023/05/10 00:11:11;;;;;;;;;;;16.90;33.30;;;15.89;33.11;100924.00;12255258;19;19912;-83
2023/05/10 00:15:13;;;;;;;;;;;16.80;33.20;;;15.74;33.22;100911.13;12253253;19;20333;-84
2023/05/10 00:19:15;;;;;;;;;;;16.70;33.20;;;15.61;33.14;100905.91;12254730;19;19928;-84
2023/05/10 00:23:16;;;;;;;;;;;16.60;33.40;;;15.61;33.17;100917.28;12252322;19;20246;-84
2023/05/10 00:27:18;;;;;;;;;;;16.50;33.40;;;15.56;33.18;100908.03;12250343;19;20354;-84
2023/05/10 00:31:19;;;;;;;;;;;16.50;33.70;;;15.31;33.32;100878.25;12251913;19;19923;-84
2023/05/10 00:35:21;;;;;;;;;;;16.40;33.60;;;15.40;33.35;100897.78;12247732;19;19943;-84
2023/05/10 00:39:23;;;;;;;;;;;16.30;33.60;;;15.11;33.37;100861.25;12247757;19;19927;-84
2023/05/10 00:43:49;;;;;;;;;;;16.30;33.80;;;15.29;33.38;100903.00;12246419;19;19926;-83
2023/05/10 00:47:54;;;;;;;;;;;16.20;34.00;;;15.15;33.41;100885.53;12246059;19;19930;-83
2023/05/10 00:51:56;;;;;;;;;;;16.10;33.70;;;14.96;33.58;100860.59;12249918;19;20243;-84
2023/05/10 00:55:59;;;;;;;;;;;16.00;33.90;;;14.96;33.60;100868.47;12247861;19;19923;-83
2023/05/10 01:00:01;;;;;;;;;;;15.90;33.90;;;14.92;33.53;100871.41;12249376;19;19924;-83
2023/05/10 01:04:03;;;;;;;;;;;15.90;33.80;;;14.84;33.71;100869.34;12249018;19;19934;-84
2023/05/10 01:08:04;;;;;;;;;;;15.80;35.00;;;14.51;33.73;100823.41;12245580;19;19978;-84
2023/05/10 01:12:07;;;;;;;;;;;15.80;34.30;;;14.58;33.72;100850.13;12249431;19;19915;-84
2023/05/10 01:16:08;;;;;;;;;;;15.70;34.50;;;14.63;33.72;100865.59;12247248;19;20381;-84
2023/05/10 01:20:11;;;;;;;;;;;15.60;34.30;;;14.57;33.79;100862.44;12248545;19;20255;-84
2023/05/10 01:24:40;;;;;;;;;;;15.60;34.30;;;14.58;33.91;100869.38;12248382;19;19919;-84
2023/05/10 01:28:45;;;;;;;;;;;15.50;34.70;;;14.50;33.85;100866.44;12247622;19;19919;-84
2023/05/10 01:33:15;;;;;;;;;;;15.40;34.70;;;14.34;33.90;100843.00;12243528;19;19911;-84
2023/05/10 01:37:21;;;;;;;;;;;15.40;35.70;;;14.22;34.01;100830.69;12245930;19;20300;-84
2023/05/10 01:41:36;;;;;;;;;;;15.30;34.70;;;14.33;34.03;100846.53;12250793;19;19974;-84
2023/05/10 01:45:59;;;;;;;;;;;15.30;34.70;;;14.21;34.11;100836.91;12256512;19;19921;-83
2023/05/10 01:50:04;;;;;;;;;;;15.30;34.60;;;13.84;34.33;100773.75;12260060;19;19915;-84
2023/05/10 01:54:08;;;;;;;;;;;15.20;34.50;;;13.97;34.23;100800.03;12260816;19;19919;-84
2023/05/10 01:58:23;;;;;;;;;;;15.20;34.80;;;14.20;34.16;100844.88;12255397;19;19922;-83
2023/05/10 02:02:25;;;;;;;;;;;15.20;34.60;;;14.13;34.24;100826.91;12259613;19;19947;-84
2023/05/10 02:06:27;;;;;;;;;;;15.10;34.60;;;13.87;34.30;100791.09;12254273;19;19966;-83
2023/05/10 02:10:30;;;;;;;;;;;15.10;34.50;;;14.13;34.30;100834.78;12256169;19;19931;-84
2023/05/10 02:14:35;;;;;;;;;;;15.10;34.60;;;14.08;34.29;100836.06;12256680;19;19915;-84
2023/05/10 02:18:40;;;;;;;;;;;15.10;34.70;;;14.05;34.36;100831.03;12252330;19;20212;-83
2023/05/10 02:22:42;;;;;;;;;;;15.00;34.70;;;13.91;34.44;100821.47;12257541;19;19915;-84
2023/05/10 02:26:45;;;;;;;;;;;15.00;34.60;;;13.99;34.34;100834.91;12253126;19;20303;-83
2023/05/10 02:30:47;;;;;;;;;;;15.00;34.80;;;13.88;34.40;100826.88;12258438;19;19952;-84
2023/05/10 02:34:51;;;;;;;;;;;14.90;34.70;;;13.76;34.48;100819.84;12255854;19;19915;-83
2023/05/10 02:38:53;;;;;;;;;;;14.80;35.00;;;13.59;34.63;100802.63;12255361;19;19926;-84
2023/05/10 02:42:57;;;;;;;;;;;14.80;35.20;;;13.64;34.56;100824.97;12255898;19;19923;-83
2023/05/10 02:46:59;;;;;;;;;;;14.70;35.00;;;13.59;34.70;100821.81;12252358;19;19955;-84
2023/05/10 02:51:05;;;;;;;;;;;14.70;35.10;;;13.46;34.70;100805.22;12256602;19;20241;-83
2023/05/10 02:55:09;;;;;;;;;;;14.60;34.90;;;13.54;34.61;100823.91;12255264;19;19954;-84
2023/05/10 02:59:10;;;;;;;;;;;14.60;35.20;;;13.42;34.61;100811.59;12256942;19;19915;-84
2023/05/10 03:03:12;;;;;;;;;;;14.50;35.30;;;13.20;34.80;100784.09;12254060;19;20404;-83
2023/05/10 03:07:14;;;;;;;;;;;14.50;35.10;;;13.22;34.81;100789.25;12252416;19;20251;-83
2023/05/10 03:11:25;;;;;;;;;;;14.50;35.10;;;13.44;34.88;100817.56;12255258;19;19932;-84
2023/05/10 03:15:52;;;;;;;;;;;14.50;35.30;;;13.33;34.80;100807.78;12252281;19;19958;-84
2023/05/10 03:20:03;;;;;;;;;;;14.40;35.40;;;13.30;34.79;100812.41;12253776;19;19928;-84
2023/05/10 03:24:07;;;;;;;;;;;14.40;35.10;;;13.20;34.92;100799.00;12254953;19;20318;-84
2023/05/10 03:28:11;;;;;;;;;;;14.30;35.10;;;13.21;34.97;100806.78;12249442;19;19926;-83
2023/05/10 03:32:13;;;;;;;;;;;14.30;35.20;;;13.12;34.91;100812.59;12253082;19;19922;-84
2023/05/10 03:36:14;;;;;;;;;;;14.30;35.40;;;13.03;35.07;100800.09;12253130;19;19953;-84
2023/05/10 03:40:16;;;;;;;;;;;14.20;35.10;;;13.06;34.99;100805.13;12254389;19;19922;-84
2023/05/10 03:44:18;;;;;;;;;;;14.20;35.10;;;12.84;34.95;100780.31;12252740;19;19931;-83
2023/05/10 03:48:21;;;;;;;;;;;14.20;35.10;;;13.09;35.05;100811.97;12251681;19;19939;-83
2023/05/10 03:52:22;;;;;;;;;;;14.10;35.60;;;13.01;35.05;100800.19;12256515;19;19928;-84
2023/05/10 03:56:24;;;;;;;;;;;14.10;35.30;;;13.02;35.19;100808.91;12256511;19;19915;-84
2023/05/10 04:00:26;;;;;;;;;;;14.10;35.20;;;12.96;35.24;100806.66;12250885;19;19919;-84
2023/05/10 04:04:30;;;;;;;;;;;14.00;35.40;;;12.92;35.22;100799.94;12251284;19;20267;-83
2023/05/10 04:08:32;;;;;;;;;;;14.00;36.00;;;12.87;35.18;100802.84;12252238;19;19923;-84
2023/05/10 04:12:34;;;;;;;;;;;14.00;36.00;;;12.82;35.26;100794.44;12247382;19;19914;-83
2023/05/10 04:16:35;;;;;;;;;;;14.00;35.40;;;12.83;35.27;100794.34;12244548;19;19914;-83
2023/05/10 04:20:37;;;;;;;;;;;14.00;35.90;;;12.74;35.46;100778.38;12249545;19;19919;-84
2023/05/10 04:24:38;;;;;;;;;;;13.90;35.70;;;12.76;35.46;100784.34;12248664;19;19915;-83
2023/05/10 04:28:40;;;;;;;;;;;13.90;35.90;;;12.82;35.51;100799.69;12249783;19;19963;-83
2023/05/10 04:32:41;;;;;;;;;;;13.90;36.10;;;12.58;35.54;100760.16;12244864;19;19918;-83
2023/05/10 04:36:43;;;;;;;;;;;13.90;35.70;;;12.91;35.65;100803.50;12251937;19;19918;-83
2023/05/10 04:40:44;;;;;;;;;;;14.00;35.80;;;12.83;35.70;100786.50;12247741;19;20257;-84
2023/05/10 04:44:46;;;;;;;;;;;14.00;36.40;;;12.80;35.59;100772.75;12248893;19;19975;-83
2023/05/10 04:48:47;;;;;;;;;;;14.00;36.10;;;12.91;35.61;100787.75;12237840;19;19919;-84
2023/05/10 04:52:49;;;;;;;;;;;14.10;36.20;;;13.03;35.74;100803.56;12239890;19;20018;-83
2023/05/10 04:56:50;;;;;;;;;;;14.10;36.20;;;13.11;35.75;100794.38;12245190;19;19921;-83
2023/05/10 05:00:52;;;;;;;;;;;14.20;36.10;;;13.14;35.81;100781.88;12240065;19;20333;-84
2023/05/10 05:04:55;;;;;;;;;;;14.30;38.00;;;12.87;36.13;100734.72;12243846;19;19974;-84
2023/05/10 05:08:57;;;;;;;;;;;14.30;36.70;;;13.33;35.89;100793.84;12248478;19;20311;-83
2023/05/10 05:12:58;;;;;;;;;;;14.40;37.00;;;13.41;35.98;100792.38;12247216;19;19923;-84
2023/05/10 05:16:59;;;;;;;;;;;14.50;37.30;;;13.48;36.00;100792.84;12240284;19;19935;-84
2023/05/10 05:21:01;;;;;;;;;;;14.60;36.80;;;13.60;35.93;100791.16;12260711;19;19915;-83
2023/05/10 05:25:03;;;;;;;;;;;14.70;36.50;;;13.54;35.96;100767.97;12260353;19;19915;-84
2023/05/10 05:29:04;;;;;;;;;;;14.80;37.70;;;13.76;36.10;100783.94;12260025;19;19940;-83
2023/05/10 05:33:06;;;;;;;;;;;14.90;37.30;;;13.78;36.11;100773.34;12259343;19;19966;-84
2023/05/10 05:37:12;;;;;;;;;;;15.00;37.50;;;14.03;36.23;100786.47;12250291;19;21195;-84
2023/05/10 05:41:13;;;;;;;;;;;15.20;37.10;;;14.20;36.27;100787.09;12260692;19;19915;-84
2023/05/10 05:45:15;;;;;;;;;;;15.30;38.30;;;14.31;36.26;100779.28;12255011;19;20334;-83
2023/05/10 05:49:16;;;;;;;;;;;15.40;37.80;;;14.55;36.40;100790.75;12249389;19;19919;-84
2023/05/10 05:53:18;;;;;;;;;;;15.60;37.40;;;14.63;36.49;100757.81;12256251;19;19937;-84
2023/05/10 05:57:19;;;;;;;;;;;15.80;37.40;;;14.67;36.38;100744.34;12249532;19;20353;-84
2023/05/10 06:01:20;;;;;;;;;;;16.00;37.30;;;14.93;36.50;100729.31;12255900;19;19978;-83
2023/05/10 06:05:22;;;;;;;;;;;16.20;37.60;;;15.40;36.65;100772.31;12251522;19;19982;-83
2023/05/10 06:09:24;;;;;;;;;;;16.50;37.40;;;15.56;36.46;100768.53;12252555;19;19930;-83
2023/05/10 06:13:32;;;;;;;;;;;16.70;37.10;;;15.79;36.56;100770.28;12255956;19;19982;-83
2023/05/10 06:17:33;;;;;;;;;;;16.90;37.80;;;15.97;36.44;100764.56;12252818;19;19918;-83
2023/05/10 06:21:35;;;;;;;;;;;17.20;37.30;;;16.08;36.54;100757.50;12258297;19;20325;-84
2023/05/10 06:25:37;;;;;;;;;;;17.40;36.90;;;16.22;36.47;100755.56;12254391;19;20341;-86
2023/05/10 06:29:38;;;;;;;;;;;17.50;37.00;;;16.39;36.59;100763.00;12248176;19;20127;-84
2023/05/10 06:33:40;;;;;;;;;;;17.70;36.70;;;16.57;36.39;100779.97;12254620;19;19911;-85
2023/05/10 06:37:42;;;;;;;;;;;17.80;36.70;;;16.70;36.56;100773.75;12248603;19;19987;-84
2023/05/10 06:41:43;;;;;;;;;;;17.90;36.40;;;16.66;36.39;100746.78;12258124;19;19929;-85
2023/05/10 06:45:45;;;;;;;;;;;18.00;37.40;;;16.88;36.43;100763.56;12254988;19;19942;-84
2023/05/10 06:49:46;;;;;;;;;;;18.10;36.30;;;16.87;36.58;100744.22;12257309;19;19931;-84
2023/05/10 06:53:48;;;;;;;;;;;18.20;37.20;;;17.10;36.47;100768.75;12253063;19;19939;-84
2023/05/10 06:57:50;;;;;;;;;;;18.30;37.00;;;17.11;36.54;100744.00;12249457;19;19927;-84
2023/05/10 07:01:51;;;;;;;;;;;18.50;36.80;;;17.34;36.55;100760.59;12249405;19;19915;-85
2023/05/10 07:05:53;;;;;;;;;;;18.50;36.80;;;17.41;36.56;100768.84;12250006;19;19939;-83
2023/05/10 07:09:54;;;;;;;;;;;18.60;36.70;;;17.48;36.63;100762.09;12251614;19;19925;-85
2023/05/10 07:13:56;;;;;;;;;;;18.80;36.90;;;17.58;36.45;100746.28;12250310;19;20350;-83
2023/05/10 07:17:57;;;;;;;;;;;18.80;36.60;;;17.76;36.39;100759.75;12246831;19;19935;-83
2023/05/10 07:21:59;;;;;;;;;;;18.90;36.40;;;17.81;36.65;100739.94;12251238;19;20268;-84
2023/05/10 07:26:02;;;;;;;;;;;19.10;36.50;;;17.97;36.51;100739.44;12247281;19;19911;-84
2023/05/10 07:30:03;;;;;;;;;;;19.20;36.40;;;18.16;36.62;100764.31;12250582;19;19943;-85
2023/05/10 07:34:05;;;;;;;;;;;19.40;36.30;;;18.29;36.44;100756.97;12247836;19;19927;-84
2023/05/10 07:38:06;;;;;;;;;;;19.50;36.20;;;18.47;36.31;100749.22;12245814;19;19936;-85
2023/05/10 07:42:08;;;;;;;;;;;19.60;36.10;;;18.60;36.40;100749.81;12248582;19;19938;-85
2023/05/10 07:46:10;;;;;;;;;;;19.70;36.10;;;18.61;36.41;100722.41;12244883;19;19923;-84
2023/05/10 07:50:12;;;;;;;;;;;20.00;36.10;;;19.01;36.33;100759.38;12248558;19;19922;-85
2023/05/10 07:54:14;;;;;;;;;;;20.10;36.10;;;19.12;36.30;100746.97;12249879;19;19950;-84
2023/05/10 07:58:15;;;;;;;;;;;20.30;35.80;;;19.31;36.41;100752.28;12248276;19;19915;-84
2023/05/10 08:02:17;;;;;;;;;;;20.40;36.20;;;19.48;36.32;100761.31;12242299;19;20451;-84
2023/05/10 08:06:19;;;;;;;;;;;20.60;35.80;;;19.60;36.20;100738.97;12240128;19;19922;-85
2023/05/10 08:10:20;;;;;;;;;;;20.80;35.80;;;19.77;36.44;100744.56;12248556;19;19922;-85
2023/05/10 08:14:22;;;;;;;;;;;20.90;35.80;;;19.91;36.41;100736.13;12244368;19;19951;-85
2023/05/10 08:18:23;;;;;;;;;;;21.10;35.70;;;20.13;36.07;100742.88;12249290;19;19940;-85
2023/05/10 08:22:25;;;;;;;;;;;21.30;35.60;;;20.29;36.14;100748.38;12252750;19;19911;-86
2023/05/10 08:26:27;;;;;;;;;;;21.50;35.10;;;20.39;36.41;100737.75;12249208;19;19915;-85
2023/05/10 08:30:29;;;;;;;;;;;21.70;34.80;;;20.63;36.11;100766.41;12250097;19;19915;-86
2023/05/10 08:34:31;;;;;;;;;;;21.80;34.90;;;20.46;36.07;100708.78;12249173;19;19934;-85
2023/05/10 08:38:32;;;;;;;;;;;21.90;35.00;;;20.80;35.85;100746.16;12252708;19;19953;-86
2023/05/10 08:42:35;;;;;;;;;;;22.00;34.90;;;20.83;36.19;100745.84;12253895;19;19915;-87
2023/05/10 08:46:43;;;;;;;;;;;22.10;34.70;;;20.96;36.01;100735.69;12247531;19;19918;-86
2023/05/10 08:50:46;;;;;;;;;;;22.20;34.70;;;21.07;36.16;100741.78;12249431;19;19915;-86
2023/05/10 08:54:48;;;;;;;;;;;22.30;34.40;;;21.23;36.20;100743.75;12256366;19;19918;-86
2023/05/10 08:58:50;;;;;;;;;;;22.40;34.60;;;21.37;36.00;100745.84;12237957;19;19911;-85
2023/05/10 09:02:52;;;;;;;;;;;22.60;34.30;;;21.43;35.58;100737.28;12244071;19;19930;-86
2023/05/10 09:06:54;;;;;;;;;;;22.70;34.70;;;21.49;36.06;100727.84;12244680;19;19923;-87
2023/05/10 09:10:56;;;;;;;;;;;22.80;34.40;;;21.69;35.68;100725.81;12247814;19;19929;-85
2023/05/10 09:14:59;;;;;;;;;;;22.90;34.20;;;21.83;35.58;100741.19;12237513;19;19943;-86
2023/05/10 09:19:01;;;;;;;;;;;23.00;34.20;;;21.79;35.58;100722.06;12247754;19;20330;-85
2023/05/10 09:23:02;;;;;;;;;;;23.10;34.20;;;22.09;35.85;100739.34;12245141;19;19914;-85
2023/05/10 09:27:04;;;;;;;;;;;23.20;34.00;;;22.18;35.79;100753.53;12242697;19;20256;-85
2023/05/10 09:31:05;;;;;;;;;;;23.30;34.20;;;22.28;35.39;100748.09;12245505;19;20385;-85
2023/05/10 09:35:11;;;;;;;;;;;23.40;33.40;;;22.35;35.41;100753.59;12240157;19;20421;-87
2023/05/10 09:39:15;;;;;;;;;;;23.50;34.10;;;22.34;35.16;100742.13;12245479;19;19932;-85
2023/05/10 09:43:17;;;;;;;;;;;23.60;34.00;;;22.52;35.33;100750.84;12251243;19;19911;-86
2023/05/10 09:47:19;;;;;;;;;;;23.70;33.10;;;22.37;34.88;100706.38;12246275;19;19923;-86
2023/05/10 09:51:21;;;;;;;;;;;23.70;33.60;;;22.71;35.33;100755.03;12250165;19;19918;-85
2023/05/10 09:55:25;;;;;;;;;;;23.80;33.00;;;22.82;35.08;100761.03;12240428;19;19949;-86
2023/05/10 09:59:28;;;;;;;;;;;23.90;33.90;;;22.94;34.97;100754.41;12237193;19;20049;-89
2023/05/10 10:03:30;;;;;;;;;;;24.00;34.10;;;23.04;34.92;100738.31;12241536;19;19927;-88
2023/05/10 10:07:32;;;;;;;;;;;24.20;34.00;;;23.18;35.12;100725.13;12250224;19;19944;-88
2023/05/10 10:11:38;;;;;;;;;;;24.30;34.00;;;23.19;34.58;100725.97;12255214;19;20330;-87
2023/05/10 10:15:39;;;;;;;;;;;24.40;32.60;;;23.40;34.87;100731.63;12255363;19;19914;-88
2023/05/10 10:19:41;;;;;;;;;;;24.50;33.10;;;23.50;34.91;100725.28;12257030;19;19926;-88
2023/05/10 10:23:43;;;;;;;;;;;24.60;33.00;;;23.42;34.70;100694.16;12257500;19;20341;-89
2023/05/10 10:27:48;;;;;;;;;;;24.70;33.00;;;23.71;34.60;100719.41;12250894;19;19923;-88
2023/05/10 10:32:42;;;;;;;;;;;24.90;32.90;;;23.93;34.59;100744.56;12254461;19;20238;-87
2023/05/10 10:36:45;;;;;;;;;;;24.90;32.90;;;23.90;34.23;100734.22;12251440;19;19961;-87
2023/05/10 10:40:47;;;;;;;;;;;25.10;32.70;;;24.02;34.21;100731.00;12257926;19;19911;-88
2023/05/10 10:44:49;;;;;;;;;;;25.10;33.20;;;24.05;34.35;100737.84;12254926;19;19919;-88
2023/05/10 10:49:09;;;;;;;;;;;25.20;32.50;;;24.05;34.54;100728.00;12249461;19;20261;-88
2023/05/10 10:53:10;;;;;;;;;;;25.20;32.60;;;24.18;34.32;100734.63;12254892;19;19944;-88
2023/05/10 10:57:13;;;;;;;;;;;25.30;32.20;;;24.22;34.16;100731.44;12243893;19;19910;-88
2023/05/10 11:01:17;;;;;;;;;;;25.40;32.20;;;24.31;34.40;100739.41;12254126;19;19911;-88
2023/05/10 11:05:46;;;;;;;;;;;25.30;33.20;;;24.44;34.32;100734.38;12253903;19;19915;-89
2023/05/10 11:09:49;;;;;;;;;;;25.40;33.00;;;24.53;34.18;100719.13;12254268;19;19923;-88
2023/05/10 11:13:53;;;;;;;;;;;25.60;32.80;;;24.66;34.24;100722.06;12250879;19;20001;-88
2023/05/10 11:17:55;;;;;;;;;;;25.70;32.60;;;24.64;34.18;100698.19;12243856;19;19931;-88
2023/05/10 11:22:03;;;;;;;;;;;25.80;31.80;;;24.93;33.76;100723.38;12249762;19;19953;-88
2023/05/10 11:26:09;;;;;;;;;;;25.90;32.00;;;25.03;34.11;100715.91;12249323;19;19947;-89
2023/05/10 11:30:11;;;;;;;;;;;26.10;32.00;;;25.12;33.62;100725.53;12252183;19;19914;-88
2023/05/10 11:34:30;;;;;;;;;;;26.20;32.30;;;25.20;33.54;100722.00;12249543;19;20262;-88
2023/05/10 11:38:32;;;;;;;;;;;26.30;32.20;;;25.26;33.81;100721.28;12250100;19;19956;-89
2023/05/10 11:42:34;;;;;;;;;;;26.30;31.60;;;25.31;33.42;100726.91;12251544;19;19919;-89
2023/05/10 11:46:50;;;;;;;;;;;26.40;31.30;;;25.37;33.63;100720.84;12245560;19;20292;-88
2023/05/10 11:50:52;;;;;;;;;;;26.40;32.30;;;25.27;33.68;100698.03;12243897;19;19919;-88
2023/05/10 11:54:54;;;;;;;;;;;26.50;32.40;;;25.30;33.27;100689.66;12243154;19;20302;-88
2023/05/10 11:58:57;;;;;;;;;;;26.50;32.60;;;25.45;33.41;100703.06;12248469;19;19945;-88
2023/05/10 12:03:00;;;;;;;;;;;26.60;30.90;;;25.55;33.47;100717.84;12246864;19;20275;-88
2023/05/10 12:07:03;;;;;;;;;;;26.60;31.60;;;25.50;32.90;100698.00;12243871;19;19919;-86
2023/05/10 12:11:13;;;;;;;;;;;26.70;30.80;;;25.58;32.92;100711.28;12250299;19;19950;-87
2023/05/10 12:15:23;;;;;;;;;;;26.70;30.70;;;25.72;33.10;100718.47;12251761;19;19981;-88
2023/05/10 12:19:24;;;;;;;;;;;26.70;31.80;;;25.83;32.71;100722.53;12252750;19;19918;-87
2023/05/10 12:23:26;;;;;;;;;;;26.80;30.80;;;25.88;32.51;100728.19;12256617;19;19919;-86
2023/05/10 12:27:31;;;;;;;;;;;26.90;30.20;;;25.91;32.27;100717.13;12249972;19;19952;-88
2023/05/10 12:31:48;;;;;;;;;;;26.90;30.00;;;25.83;32.62;100702.00;12254358;19;19915;-87
2023/05/10 12:35:54;;;;;;;;;;;27.00;31.10;;;26.05;32.13;100726.16;12249854;19;19919;-87
2023/05/10 12:39:55;;;;;;;;;;;27.10;30.20;;;26.12;32.47;100719.06;12250763;19;20337;-86
2023/05/10 12:43:57;;;;;;;;;;;27.10;29.10;;;26.09;32.03;100715.94;12248699;19;19919;-86
2023/05/10 12:47:59;;;;;;;;;;;27.20;29.00;;;26.20;32.15;100724.31;12245044;19;19958;-87
2023/05/10 12:52:01;;;;;;;;;;;27.20;29.60;;;26.24;32.23;100735.44;12248401;19;19927;-87
2023/05/10 12:56:03;;;;;;;;;;;27.30;30.40;;;26.35;32.24;100743.00;12248549;19;20300;-87
2023/05/10 13:00:06;;;;;;;;;;;27.30;29.60;;;26.43;31.92;100750.91;12248116;19;19923;-87
2023/05/10 13:04:08;;;;;;;;;;;27.30;28.60;;;26.42;31.78;100741.25;12248550;19;20009;-87
2023/05/10 13:08:10;;;;;;;;;;;27.40;28.60;;;26.38;31.69;100733.75;12237724;19;20599;-87
2023/05/10 13:12:11;;;;;;;;;;;27.40;29.50;;;26.37;31.34;100729.44;12242561;19;19923;-87
2023/05/10 13:16:13;;;;;;;;;;;27.50;29.00;;;26.37;31.32;100722.22;12240915;19;19935;-87
2023/05/10 13:20:15;;;;;;;;;;;27.40;28.30;;;26.47;31.28;100732.66;12238795;19;19926;-87
2023/05/10 13:24:17;;;;;;;;;;;27.50;29.70;;;26.46;31.15;100713.06;12239264;19;19919;-86
2023/05/10 13:28:19;;;;;;;;;;;27.50;29.20;;;26.61;30.93;100741.69;12237199;19;19926;-87
2023/05/10 13:32:21;;;;;;;;;;;27.60;30.00;;;26.58;31.12;100721.47;12243996;19;19949;-87
2023/05/10 13:36:22;;;;;;;;;;;27.60;29.40;;;26.64;31.34;100727.91;12238531;19;19963;-87
2023/05/10 13:40:24;;;;;;;;;;;27.60;28.60;;;26.63;30.90;100732.44;12248472;19;20687;-87
2023/05/10 13:44:25;;;;;;;;;;;27.60;28.80;;;26.60;30.71;100714.06;12257378;19;19975;-87
2023/05/10 13:48:27;;;;;;;;;;;27.60;28.00;;;26.54;30.99;100709.47;12245561;19;19919;-87
2023/05/10 13:52:28;;;;;;;;;;;27.60;29.60;;;26.56;30.88;100711.97;12254108;19;19948;-87
2023/05/10 13:56:29;;;;;;;;;;;27.60;27.70;;;26.59;30.48;100716.94;12246941;19;20726;-87
2023/05/10 14:00:31;;;;;;;;;;;27.60;29.20;;;26.55;30.33;100704.97;12260581;19;19939;-88
2023/05/10 14:04:35;;;;;;;;;;;27.60;29.70;;;26.64;30.59;100714.53;12256296;19;19923;-89
2023/05/10 14:08:36;;;;;;;;;;;27.60;29.70;;;26.59;30.50;100707.03;12260076;19;20372;-87
2023/05/10 14:12:37;;;;;;;;;;;27.60;29.20;;;26.62;30.54;100712.03;12255120;19;20271;-86
2023/05/10 14:16:43;;;;;;;;;;;27.60;29.80;;;26.71;30.60;100707.38;12251538;19;20258;-86
2023/05/10 14:20:45;;;;;;;;;;;27.60;29.90;;;26.74;30.48;100704.31;12256162;19;19918;-87
2023/05/10 14:24:46;;;;;;;;;;;27.70;29.10;;;26.68;30.43;100679.13;12252844;19;19975;-87
2023/05/10 14:28:48;;;;;;;;;;;27.70;29.80;;;26.92;30.46;100706.53;12258050;19;19999;-86
2023/05/10 14:32:50;;;;;;;;;;;27.80;30.00;;;26.89;30.33;100690.84;12258459;19;20391;-87
2023/05/10 14:36:52;;;;;;;;;;;27.80;28.40;;;26.91;29.84;100694.16;12251826;19;19975;-86
2023/05/10 14:40:53;;;;;;;;;;;27.80;29.70;;;26.76;29.96;100655.88;12255576;19;19914;-86
2023/05/10 14:44:55;;;;;;;;;;;27.80;28.60;;;26.81;29.95;100670.34;12255730;19;19944;-86
2023/05/10 14:48:56;;;;;;;;;;;27.80;27.90;;;26.92;30.12;100691.31;12254272;19;19982;-88
2023/05/10 14:52:58;;;;;;;;;;;27.80;28.10;;;26.87;29.72;100692.91;12247737;19;19931;-89
2023/05/10 14:57:00;;;;;;;;;;;27.80;28.90;;;26.91;29.63;100700.34;12255411;19;19926;-88
2023/05/10 15:01:02;;;;;;;;;;;27.80;27.60;;;26.91;29.58;100700.34;12256386;19;19919;-87
2023/05/10 15:05:03;;;;;;;;;;;27.80;29.20;;;26.90;29.64;100708.59;12252605;19;19934;-88
2023/05/10 15:09:05;;;;;;;;;;;27.70;28.00;;;26.81;29.48;100693.66;12255370;19;19952;-87
2023/05/10 15:13:06;;;;;;;;;;;27.70;28.40;;;26.80;29.36;100694.69;12253872;19;20354;-88
2023/05/10 15:17:08;;;;;;;;;;;27.70;29.10;;;26.86;29.30;100692.06;12242563;19;19927;-85
2023/05/10 15:21:09;;;;;;;;;;;27.80;28.80;;;26.88;29.52;100699.91;12259196;19;19993;-88
2023/05/10 15:25:11;;;;;;;;;;;27.80;28.90;;;27.00;29.41;100702.91;12254823;19;19914;-88
2023/05/10 15:29:19;;;;;;;;;;;27.80;29.60;;;27.02;29.53;100703.53;12257907;19;19919;-88
2023/05/10 15:33:21;;;;;;;;;;;27.80;28.80;;;27.07;29.20;100711.84;12254472;19;19930;-88
2023/05/10 15:37:23;;;;;;;;;;;27.90;29.30;;;27.04;29.38;100704.19;12253612;19;19922;-89
2023/05/10 15:41:25;;;;;;;;;;;27.90;29.30;;;27.06;29.21;100694.09;12258741;19;20326;-88
2023/05/10 15:45:26;;;;;;;;;;;27.90;28.70;;;27.10;29.21;100714.94;12252407;19;19922;-88
2023/05/10 15:49:28;;;;;;;;;;;27.90;29.00;;;26.98;29.34;100694.22;12255320;19;20317;-88
2023/05/10 15:53:30;;;;;;;;;;;27.90;29.30;;;26.99;29.40;100701.25;12256415;19;19929;-88
2023/05/10 15:57:31;;;;;;;;;;;27.90;29.50;;;27.00;29.47;100697.53;12251395;19;19933;-88
2023/05/10 16:01:33;;;;;;;;;;;27.90;27.90;;;26.99;29.16;100703.94;12251531;19;19918;-88
2023/05/10 16:05:35;;;;;;;;;;;27.90;28.70;;;26.97;29.43;100717.50;12249968;19;19926;-87
2023/05/10 16:09:36;;;;;;;;;;;27.80;28.80;;;26.80;29.49;100686.66;12256166;19;19926;-89
2023/05/10 16:13:37;;;;;;;;;;;27.80;28.90;;;26.91;29.41;100713.75;12261529;19;20320;-86
2023/05/10 16:17:39;;;;;;;;;;;27.70;28.90;;;26.91;29.44;100711.06;12249961;19;19926;-88
2023/05/10 16:21:40;;;;;;;;;;;27.70;29.50;;;26.92;29.20;100718.09;12254873;19;19911;-87
2023/05/10 16:25:42;;;;;;;;;;;27.70;29.10;;;26.91;29.00;100734.38;12249532;19;19974;-88
2023/05/10 16:29:45;;;;;;;;;;;27.70;29.70;;;26.89;29.12;100731.88;12253676;19;19986;-87
2023/05/10 16:33:48;;;;;;;;;;;27.70;28.50;;;26.72;29.30;100710.91;12236874;19;19923;-87
2023/05/10 16:37:50;;;;;;;;;;;27.60;29.10;;;26.73;28.90;100733.97;12242450;19;20273;-88
2023/05/10 16:41:51;;;;;;;;;;;27.60;29.20;;;26.54;29.33;100717.50;12247815;19;20358;-88
2023/05/10 16:45:52;;;;;;;;;;;27.50;29.70;;;26.62;29.16;100727.25;12246641;19;19925;-88
2023/05/10 16:49:54;;;;;;;;;;;27.50;30.00;;;26.70;29.21;100745.91;12250674;19;19918;-87
2023/05/10 16:53:56;;;;;;;;;;;27.40;29.90;;;26.59;29.02;100743.72;12250621;19;19922;-87
2023/05/10 16:57:59;;;;;;;;;;;27.40;30.00;;;26.48;29.39;100740.47;12247698;19;19911;-88
2023/05/10 17:02:00;;;;;;;;;;;27.30;30.00;;;26.36;29.04;100742.00;12246592;19;19933;-88
2023/05/10 17:06:04;;;;;;;;;;;27.30;30.20;;;26.45;29.30;100767.66;12244231;19;19925;-88
2023/05/10 17:10:05;;;;;;;;;;;27.20;30.70;;;26.41;29.07;100785.13;12248841;19;19919;-87
2023/05/10 17:14:07;;;;;;;;;;;27.10;31.00;;;26.21;29.30;100768.78;12247851;19;19930;-88
2023/05/10 17:18:09;;;;;;;;;;;27.00;31.20;;;26.18;29.13;100776.38;12243291;19;20306;-88
2023/05/10 17:22:14;;;;;;;;;;;26.90;31.30;;;26.12;29.35;100780.63;12247273;19;20358;-87
2023/05/10 17:26:15;;;;;;;;;;;26.80;31.50;;;26.06;29.58;100789.41;12239908;19;19926;-87
2023/05/10 17:30:21;;;;;;;;;;;26.70;31.60;;;25.98;29.72;100794.84;12244235;19;19914;-88
2023/05/10 17:34:22;;;;;;;;;;;26.70;32.30;;;25.91;29.63;100808.09;12238338;19;19986;-87
2023/05/10 17:38:24;;;;;;;;;;;26.50;32.00;;;25.77;29.49;100799.03;12242774;19;19926;-88
2023/05/10 17:42:26;;;;;;;;;;;26.40;31.90;;;25.71;29.60;100814.97;12243531;19;19926;-87
2023/05/10 17:46:28;;;;;;;;;;;26.40;32.10;;;25.43;29.98;100791.47;12241711;19;19911;-87
2023/05/10 17:50:31;;;;;;;;;;;26.20;32.00;;;25.52;29.73;100827.00;12244045;19;19919;-87
2023/05/10 17:54:33;;;;;;;;;;;26.10;32.00;;;25.34;30.01;100808.59;12240614;19;19919;-86
2023/05/10 17:58:37;;;;;;;;;;;26.00;32.20;;;25.41;29.85;100820.25;12238436;19;20303;-86
2023/05/10 18:02:38;;;;;;;;;;;26.00;32.20;;;25.28;30.41;100815.50;12243827;19;19914;-86
2023/05/10 18:06:40;;;;;;;;;;;25.90;32.30;;;25.34;30.10;100835.34;12235196;19;19925;-86
2023/05/10 18:10:41;;;;;;;;;;;25.90;32.50;;;25.12;30.06;100804.91;12226186;19;19947;-86
2023/05/10 18:14:43;;;;;;;;;;;25.90;32.40;;;25.21;30.06;100835.09;12245182;19;19918;-86